Time;durP1;ratioP1;P1;durP2;ratioP2;P2;SDS_P1;SDS_P2;PMS_P1;PMS_P2;Temp;Humidity;BMP_temperature;BMP_pressure;BME280_temperature;BME280_humidity;BME280_pressure;Samples;Min_cycle;Max_cycle;Signal;HPM_P1;HPM_P2
2024/03/23 00:00:44;;;;;;;3.28;2.38;;;;;;;;;;5053882;28;20358;-59
2024/03/23 00:03:11;;;;;;;3.97;1.70;;;;;;;;;;5053598;28;20037;-58
2024/03/23 00:05:39;;;;;;;3.97;1.95;;;;;;;;;;5053320;28;20455;-58
2024/03/23 00:08:06;;;;;;;2.95;1.92;;;;;;;;;;5053883;28;20029;-58
2024/03/23 00:10:35;;;;;;;2.67;1.70;;;;;;;;;;5053303;28;20087;-58
2024/03/23 00:13:02;;;;;;;3.58;2.15;;;;;;;;;;5052943;28;20029;-58
2024/03/23 00:15:29;;;;;;;4.15;2.10;;;;;;;;;;5052926;28;20033;-59
2024/03/23 00:17:56;;;;;;;2.45;2.05;;;;;;;;;;5053806;28;20136;-59
2024/03/23 00:20:22;;;;;;;3.30;2.45;;;;;;;;;;5053544;28;20043;-58
2024/03/23 00:22:48;;;;;;;4.43;2.70;;;;;;;;;;5053571;28;20413;-59
2024/03/23 00:25:15;;;;;;;3.45;2.10;;;;;;;;;;5053680;28;20029;-59
2024/03/23 00:27:42;;;;;;;3.05;2.00;;;;;;;;;;5053609;28;20035;-58
2024/03/23 00:30:08;;;;;;;3.30;2.13;;;;;;;;;;5053913;28;20040;-58
2024/03/23 00:32:35;;;;;;;6.35;3.25;;;;;;;;;;5053123;28;20021;-59
2024/03/23 00:35:01;;;;;;;4.72;2.50;;;;;;;;;;5053641;28;20032;-58
2024/03/23 00:37:27;;;;;;;2.78;2.03;;;;;;;;;;5053044;28;20029;-58
2024/03/23 00:39:54;;;;;;;3.55;2.33;;;;;;;;;;5053015;28;20417;-58
2024/03/23 00:42:20;;;;;;;3.90;2.45;;;;;;;;;;5052809;28;20039;-58
2024/03/23 00:44:46;;;;;;;3.67;2.42;;;;;;;;;;5052811;28;20026;-58
2024/03/23 00:47:13;;;;;;;4.07;2.53;;;;;;;;;;5054327;28;20029;-58
2024/03/23 00:49:39;;;;;;;4.53;2.28;;;;;;;;;;5057221;28;20021;-58
2024/03/23 00:52:05;;;;;;;2.78;2.25;;;;;;;;;;5056611;28;20033;-58
2024/03/23 00:54:31;;;;;;;5.25;1.95;;;;;;;;;;5057111;28;20031;-58
2024/03/23 00:56:57;;;;;;;3.45;2.30;;;;;;;;;;5056227;28;20045;-58
2024/03/23 00:59:27;;;;;;;3.33;2.10;;;;;;;;;;5056108;28;20418;-58
2024/03/23 01:01:53;;;;;;;3.33;1.95;;;;;;;;;;5057371;28;20075;-58
2024/03/23 01:04:19;;;;;;;2.75;2.10;;;;;;;;;;5056870;28;20412;-58
2024/03/23 01:06:45;;;;;;;2.25;1.70;;;;;;;;;;5056229;28;20029;-58
2024/03/23 01:09:10;;;;;;;2.70;1.90;;;;;;;;;;5056566;28;20455;-58
2024/03/23 01:11:37;;;;;;;3.45;1.92;;;;;;;;;;5056149;28;20041;-58
2024/03/23 01:14:03;;;;;;;2.47;1.75;;;;;;;;;;5054682;28;20041;-58
2024/03/23 01:16:29;;;;;;;2.63;1.92;;;;;;;;;;5056122;28;20025;-57
2024/03/23 01:18:55;;;;;;;3.65;2.35;;;;;;;;;;5056623;28;20036;-57
2024/03/23 01:21:21;;;;;;;3.92;2.00;;;;;;;;;;5056535;28;20039;-57
2024/03/23 01:23:47;;;;;;;3.65;1.58;;;;;;;;;;5055949;28;20076;-58
2024/03/23 01:26:13;;;;;;;2.97;1.83;;;;;;;;;;5056441;28;20033;-58
2024/03/23 01:28:39;;;;;;;3.25;1.70;;;;;;;;;;5055946;28;20028;-56
2024/03/23 01:31:05;;;;;;;2.60;1.85;;;;;;;;;;5056296;28;20087;-58
2024/03/23 01:33:31;;;;;;;2.20;1.50;;;;;;;;;;5056546;28;20025;-58
2024/03/23 01:35:57;;;;;;;4.60;2.00;;;;;;;;;;5055630;28;20411;-57
2024/03/23 01:38:23;;;;;;;3.03;1.73;;;;;;;;;;5055996;28;20025;-57
2024/03/23 01:40:49;;;;;;;3.88;1.52;;;;;;;;;;5055300;28;20146;-58
2024/03/23 01:43:15;;;;;;;3.28;2.28;;;;;;;;;;5055590;28;20053;-58
2024/03/23 01:45:41;;;;;;;2.63;1.60;;;;;;;;;;5056058;28;20059;-58
2024/03/23 01:48:07;;;;;;;5.88;2.20;;;;;;;;;;5055933;28;20025;-57
2024/03/23 01:50:33;;;;;;;2.97;1.83;;;;;;;;;;5055488;28;20036;-58
2024/03/23 01:53:00;;;;;;;3.00;1.70;;;;;;;;;;5055438;28;20021;-58
2024/03/23 01:55:27;;;;;;;2.95;1.67;;;;;;;;;;5055856;28;20029;-58
2024/03/23 01:57:53;;;;;;;3.13;1.80;;;;;;;;;;5055175;28;20053;-57
2024/03/23 02:00:19;;;;;;;5.07;1.35;;;;;;;;;;5054697;28;20029;-58
2024/03/23 02:02:46;;;;;;;3.33;1.80;;;;;;;;;;5055270;28;20106;-57
2024/03/23 02:05:13;;;;;;;2.83;1.65;;;;;;;;;;5055193;28;20048;-57
2024/03/23 02:07:40;;;;;;;2.13;1.40;;;;;;;;;;5055693;28;20108;-58
2024/03/23 02:10:09;;;;;;;3.05;1.63;;;;;;;;;;5055679;28;20510;-58
2024/03/23 02:12:35;;;;;;;2.40;1.63;;;;;;;;;;5055275;28;20421;-58
2024/03/23 02:15:01;;;;;;;3.00;2.05;;;;;;;;;;5055011;28;20021;-57
2024/03/23 02:17:28;;;;;;;3.17;1.75;;;;;;;;;;5055006;28;20432;-58
2024/03/23 02:19:54;;;;;;;3.13;1.88;;;;;;;;;;5055301;28;20109;-57
2024/03/23 02:22:20;;;;;;;2.88;1.70;;;;;;;;;;5055556;28;20123;-57
2024/03/23 02:24:46;;;;;;;2.80;1.88;;;;;;;;;;5054752;28;20028;-58
2024/03/23 02:27:12;;;;;;;2.25;1.40;;;;;;;;;;5054834;28;20422;-58
2024/03/23 02:29:38;;;;;;;3.00;1.77;;;;;;;;;;5055358;28;20025;-57
2024/03/23 02:32:04;;;;;;;3.00;1.90;;;;;;;;;;5054749;28;20075;-57
2024/03/23 02:34:30;;;;;;;3.13;1.90;;;;;;;;;;5054604;28;20028;-58
2024/03/23 02:36:56;;;;;;;3.63;1.70;;;;;;;;;;5055031;28;20025;-57
2024/03/23 02:39:22;;;;;;;2.63;1.85;;;;;;;;;;5054842;28;20036;-58
2024/03/23 02:41:48;;;;;;;2.45;1.55;;;;;;;;;;5054400;28;20048;-58
2024/03/23 02:44:14;;;;;;;2.78;1.95;;;;;;;;;;5054478;28;20166;-58
2024/03/23 02:46:40;;;;;;;5.72;2.22;;;;;;;;;;5054330;28;20094;-58
2024/03/23 02:49:07;;;;;;;5.30;1.45;;;;;;;;;;5054951;28;20021;-57
2024/03/23 02:51:33;;;;;;;2.97;1.70;;;;;;;;;;5054325;28;20538;-58
2024/03/23 02:53:59;;;;;;;4.00;1.85;;;;;;;;;;5054510;28;20052;-57
2024/03/23 02:56:24;;;;;;;2.20;1.40;;;;;;;;;;5054935;28;20111;-57
2024/03/23 02:58:50;;;;;;;2.63;1.65;;;;;;;;;;5054841;28;20040;-56
2024/03/23 03:01:16;;;;;;;3.83;1.63;;;;;;;;;;5054510;28;20115;-57
2024/03/23 03:03:42;;;;;;;2.92;2.17;;;;;;;;;;5054063;28;20033;-57
2024/03/23 03:06:08;;;;;;;2.85;1.95;;;;;;;;;;5054600;28;20021;-56
2024/03/23 03:08:34;;;;;;;2.42;1.33;;;;;;;;;;5054309;28;20100;-57
2024/03/23 03:11:00;;;;;;;2.85;2.00;;;;;;;;;;5053671;28;20032;-57
2024/03/23 03:13:26;;;;;;;2.42;1.65;;;;;;;;;;5053869;28;20024;-57
2024/03/23 03:15:53;;;;;;;2.70;1.73;;;;;;;;;;5054447;28;20036;-57
2024/03/23 03:18:19;;;;;;;3.47;1.70;;;;;;;;;;5054719;28;20036;-57
2024/03/23 03:20:45;;;;;;;3.40;1.75;;;;;;;;;;5053682;28;20541;-57
2024/03/23 03:23:11;;;;;;;3.08;1.73;;;;;;;;;;5053796;28;20029;-57
2024/03/23 03:25:37;;;;;;;2.40;1.48;;;;;;;;;;5054287;28;20029;-57
2024/03/23 03:28:03;;;;;;;3.88;1.95;;;;;;;;;;5053737;28;20028;-57
2024/03/23 03:30:29;;;;;;;3.53;1.55;;;;;;;;;;5053638;28;20029;-57
2024/03/23 03:32:55;;;;;;;6.55;1.70;;;;;;;;;;5053982;28;20059;-58
2024/03/23 03:35:21;;;;;;;3.92;1.88;;;;;;;;;;5053866;28;20100;-57
2024/03/23 03:37:47;;;;;;;2.80;1.88;;;;;;;;;;5053508;28;20029;-57
2024/03/23 03:40:14;;;;;;;2.50;1.83;;;;;;;;;;5053221;28;20029;-58
2024/03/23 03:42:41;;;;;;;3.35;1.85;;;;;;;;;;5054686;28;20064;-57
2024/03/23 03:45:07;;;;;;;2.65;1.50;;;;;;;;;;5054026;28;20520;-57
2024/03/23 03:47:33;;;;;;;3.97;2.10;;;;;;;;;;5053766;28;20119;-57
2024/03/23 03:49:59;;;;;;;2.55;1.42;;;;;;;;;;5054355;28;20036;-58
2024/03/23 03:52:25;;;;;;;2.60;1.73;;;;;;;;;;5053216;28;20021;-58
2024/03/23 03:54:51;;;;;;;2.85;1.67;;;;;;;;;;5053945;28;20025;-57
2024/03/23 03:57:17;;;;;;;2.90;1.92;;;;;;;;;;5053497;28;20083;-58
2024/03/23 03:59:43;;;;;;;2.67;2.05;;;;;;;;;;5053149;28;20021;-58
2024/03/23 04:02:09;;;;;;;3.60;2.15;;;;;;;;;;5053623;28;20038;-57
2024/03/23 04:04:34;;;;;;;3.45;1.90;;;;;;;;;;5053382;28;20387;-57
2024/03/23 04:07:01;;;;;;;2.67;2.05;;;;;;;;;;5054233;28;20304;-58
2024/03/23 04:09:27;;;;;;;4.25;2.13;;;;;;;;;;5053915;28;20021;-57
2024/03/23 04:11:53;;;;;;;4.25;1.95;;;;;;;;;;5053313;28;20029;-57
2024/03/23 04:14:19;;;;;;;3.55;2.22;;;;;;;;;;5053301;28;20090;-57
2024/03/23 04:16:45;;;;;;;5.45;1.75;;;;;;;;;;5053802;28;20025;-58
2024/03/23 04:19:11;;;;;;;2.83;1.98;;;;;;;;;;5053545;28;20426;-58
2024/03/23 04:21:37;;;;;;;3.08;1.95;;;;;;;;;;5053627;28;20072;-57
2024/03/23 04:24:03;;;;;;;2.17;1.55;;;;;;;;;;5057846;28;20025;-58
2024/03/23 04:26:29;;;;;;;3.05;1.90;;;;;;;;;;5057193;28;20112;-58
2024/03/23 04:28:56;;;;;;;3.03;1.77;;;;;;;;;;5057607;28;20032;-58
2024/03/23 04:31:21;;;;;;;3.10;1.92;;;;;;;;;;5056651;28;20490;-57
2024/03/23 04:33:48;;;;;;;2.83;2.05;;;;;;;;;;5057025;28;20021;-57
2024/03/23 04:36:14;;;;;;;5.00;2.08;;;;;;;;;;5057503;28;20538;-57
2024/03/23 04:38:39;;;;;;;2.63;1.83;;;;;;;;;;5057387;28;20204;-58
2024/03/23 04:41:05;;;;;;;2.72;1.85;;;;;;;;;;5056772;28;20147;-57
2024/03/23 04:43:31;;;;;;;3.05;1.77;;;;;;;;;;5057270;28;20095;-57
2024/03/23 04:45:58;;;;;;;3.28;1.90;;;;;;;;;;5056738;28;20021;-57
2024/03/23 04:48:24;;;;;;;2.40;1.65;;;;;;;;;;5057246;28;20052;-57
2024/03/23 04:50:54;;;;;;;5.15;2.30;;;;;;;;;;5056574;28;20094;-58
2024/03/23 04:53:20;;;;;;;4.38;2.08;;;;;;;;;;5057434;28;20075;-58
2024/03/23 04:55:46;;;;;;;4.18;2.30;;;;;;;;;;5056516;28;20028;-58
2024/03/23 04:58:12;;;;;;;3.70;2.40;;;;;;;;;;5057142;28;20107;-57
2024/03/23 05:00:38;;;;;;;3.90;2.50;;;;;;;;;;5056283;28;20032;-57
2024/03/23 05:03:04;;;;;;;4.32;2.42;;;;;;;;;;5056707;28;20033;-58
2024/03/23 05:05:30;;;;;;;5.45;3.00;;;;;;;;;;5056395;28;20363;-57
2024/03/23 05:07:56;;;;;;;5.43;4.40;;;;;;;;;;5056363;28;20032;-57
2024/03/23 05:10:22;;;;;;;5.45;4.32;;;;;;;;;;5056807;28;20029;-58
2024/03/23 05:12:48;;;;;;;6.55;5.95;;;;;;;;;;5056303;28;20032;-57
2024/03/23 05:15:14;;;;;;;6.53;5.60;;;;;;;;;;5056177;28;20112;-58
2024/03/23 05:17:40;;;;;;;7.93;6.15;;;;;;;;;;5056354;28;20025;-57
2024/03/23 05:20:09;;;;;;;7.63;6.47;;;;;;;;;;5056382;28;20159;-58
2024/03/23 05:22:36;;;;;;;8.02;6.85;;;;;;;;;;5057341;28;20387;-58
2024/03/23 05:25:04;;;;;;;10.75;7.10;;;;;;;;;;5056518;28;20021;-58
2024/03/23 05:27:30;;;;;;;8.38;7.47;;;;;;;;;;5055968;28;20029;-58
2024/03/23 05:29:56;;;;;;;11.23;7.82;;;;;;;;;;5056256;28;20025;-58
2024/03/23 05:32:22;;;;;;;11.07;8.50;;;;;;;;;;5055420;28;20433;-58
2024/03/23 05:34:50;;;;;;;11.23;8.32;;;;;;;;;;5055597;28;20070;-58
2024/03/23 05:37:16;;;;;;;9.57;7.97;;;;;;;;;;5055832;28;20097;-57
2024/03/23 05:39:42;;;;;;;13.18;8.90;;;;;;;;;;5056098;28;20057;-58
2024/03/23 05:42:08;;;;;;;10.65;8.82;;;;;;;;;;5055610;28;20033;-58
2024/03/23 05:44:34;;;;;;;11.00;9.25;;;;;;;;;;5056384;28;20367;-58
2024/03/23 05:47:00;;;;;;;11.35;9.02;;;;;;;;;;5055573;28;20032;-58
2024/03/23 05:49:26;;;;;;;13.18;8.93;;;;;;;;;;5055771;28;20021;-57
2024/03/23 05:51:52;;;;;;;14.38;9.18;;;;;;;;;;5055466;28;20040;-58
2024/03/23 05:54:18;;;;;;;9.98;8.77;;;;;;;;;;5055706;28;20108;-57
2024/03/23 05:56:44;;;;;;;9.15;8.25;;;;;;;;;;5055744;28;20049;-57
2024/03/23 05:59:09;;;;;;;9.23;7.05;;;;;;;;;;5055124;28;20025;-58
2024/03/23 06:01:35;;;;;;;8.73;7.40;;;;;;;;;;5056078;28;20363;-57
2024/03/23 06:04:01;;;;;;;10.45;8.40;;;;;;;;;;5055375;28;20550;-58
2024/03/23 06:06:30;;;;;;;8.45;7.60;;;;;;;;;;5055407;28;20143;-57
2024/03/23 06:08:55;;;;;;;9.30;7.93;;;;;;;;;;5055857;28;20031;-58
2024/03/23 06:11:21;;;;;;;9.60;7.13;;;;;;;;;;5055213;28;20112;-57
2024/03/23 06:13:47;;;;;;;10.77;7.65;;;;;;;;;;5055087;28;20132;-58
2024/03/23 06:16:13;;;;;;;7.15;6.00;;;;;;;;;;5055694;28;20029;-58
2024/03/23 06:18:40;;;;;;;9.38;5.63;;;;;;;;;;5055654;28;20514;-58
2024/03/23 06:21:06;;;;;;;3.92;3.22;;;;;;;;;;5054902;28;20071;-58
2024/03/23 06:23:32;;;;;;;5.18;3.88;;;;;;;;;;5054969;28;20448;-57
2024/03/23 06:25:58;;;;;;;3.63;2.75;;;;;;;;;;5055024;28;20056;-57
2024/03/23 06:28:24;;;;;;;3.65;2.63;;;;;;;;;;5055407;28;20029;-58
2024/03/23 06:30:50;;;;;;;7.10;2.47;;;;;;;;;;5054836;28;20036;-57
2024/03/23 06:33:16;;;;;;;2.78;1.67;;;;;;;;;;5055296;28;20028;-57
2024/03/23 06:35:42;;;;;;;3.28;1.75;;;;;;;;;;5055129;28;20033;-57
2024/03/23 06:38:07;;;;;;;2.42;1.45;;;;;;;;;;5054718;28;20060;-57
2024/03/23 06:40:33;;;;;;;2.13;1.20;;;;;;;;;;5054561;28;20037;-57
2024/03/23 06:42:59;;;;;;;2.60;1.08;;;;;;;;;;5054310;28;20021;-58
2024/03/23 06:45:25;;;;;;;1.27;0.63;;;;;;;;;;5053982;28;20036;-57
2024/03/23 06:47:52;;;;;;;0.90;0.45;;;;;;;;;;5054516;28;20128;-57
2024/03/23 06:50:18;;;;;;;1.02;0.32;;;;;;;;;;5055067;28;20443;-57
2024/03/23 06:52:44;;;;;;;0.52;0.20;;;;;;;;;;5054919;28;20027;-57
2024/03/23 06:55:09;;;;;;;0.40;0.20;;;;;;;;;;5055078;28;20104;-58
2024/03/23 06:57:35;;;;;;;1.15;0.52;;;;;;;;;;5054773;28;20102;-57
2024/03/23 07:00:01;;;;;;;1.10;0.47;;;;;;;;;;5054291;28;20066;-59
2024/03/23 07:02:28;;;;;;;0.52;0.30;;;;;;;;;;5054145;28;20037;-58
2024/03/23 07:04:53;;;;;;;0.40;0.22;;;;;;;;;;5054267;28;20344;-57
2024/03/23 07:07:19;;;;;;;3.58;0.50;;;;;;;;;;5054685;28;20108;-56
2024/03/23 07:09:45;;;;;;;0.57;0.20;;;;;;;;;;5054372;28;20029;-57
2024/03/23 07:12:11;;;;;;;1.13;0.47;;;;;;;;;;5054605;28;20032;-58
2024/03/23 07:14:37;;;;;;;0.60;0.25;;;;;;;;;;5054009;28;20029;-57
2024/03/23 07:17:03;;;;;;;0.73;0.32;;;;;;;;;;5054503;28;20033;-56
2024/03/23 07:19:29;;;;;;;0.73;0.30;;;;;;;;;;5054640;28;20458;-58
2024/03/23 07:21:55;;;;;;;0.68;0.10;;;;;;;;;;5054107;28;20104;-56
2024/03/23 07:24:21;;;;;;;0.52;0.22;;;;;;;;;;5054489;28;20158;-57
2024/03/23 07:26:47;;;;;;;0.68;0.30;;;;;;;;;;5053874;28;20021;-57
2024/03/23 07:29:13;;;;;;;0.47;0.20;;;;;;;;;;5053832;28;20478;-57
2024/03/23 07:31:39;;;;;;;1.10;0.43;;;;;;;;;;5054244;28;20036;-57
2024/03/23 07:34:05;;;;;;;0.03;0.00;;;;;;;;;;5053469;28;20423;-57
2024/03/23 07:36:31;;;;;;;0.35;0.13;;;;;;;;;;5054139;28;20021;-57
2024/03/23 07:38:57;;;;;;;2.42;0.20;;;;;;;;;;5054223;28;20021;-56
2024/03/23 07:41:23;;;;;;;0.60;0.28;;;;;;;;;;5053573;28;20475;-57
2024/03/23 07:43:50;;;;;;;0.50;0.20;;;;;;;;;;5053617;28;20116;-57
2024/03/23 07:46:16;;;;;;;0.52;0.40;;;;;;;;;;5053533;28;20033;-57
2024/03/23 07:48:42;;;;;;;0.75;0.30;;;;;;;;;;5054196;28;20033;-57
2024/03/23 07:51:08;;;;;;;0.40;0.20;;;;;;;;;;5054082;28;20108;-57
2024/03/23 07:53:35;;;;;;;0.68;0.45;;;;;;;;;;5054075;28;20113;-57
2024/03/23 07:56:02;;;;;;;0.30;0.20;;;;;;;;;;5053927;28;20332;-55
2024/03/23 07:58:28;;;;;;;0.95;0.30;;;;;;;;;;5057780;28;20028;-56
2024/03/23 08:00:55;;;;;;;0.38;0.17;;;;;;;;;;5057342;28;20033;-57
2024/03/23 08:04:04;;;;;;;0.30;0.17;;;;;;;;;;5057274;28;20387;-57
2024/03/23 08:06:30;;;;;;;0.57;0.28;;;;;;;;;;5058478;28;20410;-56
2024/03/23 08:08:59;;;;;;;1.67;0.28;;;;;;;;;;5057240;28;20060;-57
2024/03/23 08:11:26;;;;;;;0.50;0.20;;;;;;;;;;5057401;28;20036;-57
2024/03/23 08:13:52;;;;;;;0.20;0.10;;;;;;;;;;5057413;28;20028;-56
2024/03/23 08:16:18;;;;;;;0.57;0.30;;;;;;;;;;5057002;28;20025;-56
2024/03/23 08:18:44;;;;;;;1.27;0.40;;;;;;;;;;5057669;28;20028;-56
2024/03/23 08:21:10;;;;;;;0.93;0.40;;;;;;;;;;5057190;28;20044;-56
2024/03/23 08:23:37;;;;;;;1.08;0.50;;;;;;;;;;5057847;28;20025;-57
2024/03/23 08:26:09;;;;;;;0.52;0.28;;;;;;;;;;5057547;28;20415;-57
2024/03/23 08:28:35;;;;;;;0.50;0.30;;;;;;;;;;5057227;28;20039;-57
2024/03/23 08:31:02;;;;;;;0.82;0.50;;;;;;;;;;5057049;28;20025;-55
2024/03/23 08:33:28;;;;;;;1.13;0.57;;;;;;;;;;5056969;28;20036;-57
2024/03/23 08:35:55;;;;;;;0.73;0.40;;;;;;;;;;5056944;28;20090;-57
2024/03/23 08:38:21;;;;;;;0.70;0.43;;;;;;;;;;5057007;28;20565;-56
2024/03/23 08:40:47;;;;;;;0.57;0.30;;;;;;;;;;5056684;28;20040;-56
2024/03/23 08:43:13;;;;;;;1.73;0.80;;;;;;;;;;5056753;28;20033;-57
2024/03/23 08:45:39;;;;;;;1.80;0.90;;;;;;;;;;5056761;28;20079;-57
2024/03/23 08:48:05;;;;;;;1.67;0.85;;;;;;;;;;5056446;28;20021;-56
2024/03/23 08:50:31;;;;;;;1.67;0.75;;;;;;;;;;5056396;28;20074;-56
2024/03/23 08:52:57;;;;;;;2.05;0.90;;;;;;;;;;5056930;28;20025;-57
2024/03/23 08:55:23;;;;;;;1.38;0.60;;;;;;;;;;5057403;28;20465;-57
2024/03/23 08:57:49;;;;;;;4.75;1.08;;;;;;;;;;5056929;28;20136;-56
2024/03/23 09:00:15;;;;;;;1.67;0.70;;;;;;;;;;5056077;28;20122;-54
2024/03/23 09:02:41;;;;;;;2.38;0.98;;;;;;;;;;5056461;28;20051;-56
2024/03/23 09:05:07;;;;;;;1.30;0.65;;;;;;;;;;5056527;28;20029;-53
2024/03/23 09:07:33;;;;;;;1.58;0.70;;;;;;;;;;5056253;28;20367;-56
2024/03/23 09:09:59;;;;;;;1.73;0.93;;;;;;;;;;5056636;28;20021;-56
2024/03/23 09:12:25;;;;;;;1.58;0.77;;;;;;;;;;5055968;28;20542;-56
2024/03/23 09:14:53;;;;;;;1.33;0.60;;;;;;;;;;5056236;28;20067;-54
2024/03/23 09:17:19;;;;;;;1.70;0.85;;;;;;;;;;5055876;28;20443;-54
2024/03/23 09:19:45;;;;;;;1.60;0.90;;;;;;;;;;5056854;28;20036;-56
2024/03/23 09:22:11;;;;;;;3.25;0.88;;;;;;;;;;5054518;28;20475;-56
2024/03/23 09:24:37;;;;;;;2.30;1.30;;;;;;;;;;5056567;28;20112;-55
2024/03/23 09:27:03;;;;;;;2.47;1.45;;;;;;;;;;5055960;28;20443;-57
2024/03/23 09:29:29;;;;;;;2.60;1.70;;;;;;;;;;5056225;28;20430;-56
2024/03/23 09:31:55;;;;;;;4.13;1.65;;;;;;;;;;5055550;28;20056;-56
2024/03/23 09:34:21;;;;;;;3.95;2.17;;;;;;;;;;5056396;28;20129;-55
2024/03/23 09:36:47;;;;;;;2.35;1.50;;;;;;;;;;5055530;28;20039;-57
2024/03/23 09:39:13;;;;;;;5.72;2.45;;;;;;;;;;5056180;28;20025;-53
2024/03/23 09:41:39;;;;;;;4.18;2.10;;;;;;;;;;5055686;28;20041;-56
2024/03/23 09:44:05;;;;;;;5.45;2.88;;;;;;;;;;5056154;28;20025;-54
2024/03/23 09:46:36;;;;;;;5.38;2.60;;;;;;;;;;5055402;28;20040;-55
2024/03/23 09:49:04;;;;;;;3.60;2.10;;;;;;;;;;5055987;28;20028;-56
2024/03/23 09:51:30;;;;;;;2.67;1.73;;;;;;;;;;5055632;28;20123;-54
2024/03/23 09:53:56;;;;;;;5.03;2.53;;;;;;;;;;5055599;28;20043;-53
2024/03/23 09:56:23;;;;;;;3.67;1.80;;;;;;;;;;5055996;28;20300;-53
2024/03/23 09:58:49;;;;;;;4.40;2.17;;;;;;;;;;5055053;28;20033;-54
2024/03/23 10:01:15;;;;;;;3.58;1.70;;;;;;;;;;5055259;28;20086;-51
2024/03/23 10:03:44;;;;;;;7.20;3.13;;;;;;;;;;5055804;28;20033;-54
2024/03/23 10:06:10;;;;;;;4.65;1.90;;;;;;;;;;5055517;28;20455;-55
2024/03/23 10:08:36;;;;;;;4.00;2.05;;;;;;;;;;5055254;28;20024;-54
2024/03/23 10:11:16;;;;;;;5.43;2.38;;;;;;;;;;5055191;28;20029;-54
2024/03/23 10:13:43;;;;;;;4.55;2.15;;;;;;;;;;5055046;28;20025;-55
2024/03/23 10:16:09;;;;;;;2.88;1.98;;;;;;;;;;5055135;28;20029;-55
2024/03/23 10:18:41;;;;;;;3.38;2.38;;;;;;;;;;5055653;28;20029;-55
2024/03/23 10:21:08;;;;;;;5.22;2.50;;;;;;;;;;5054747;28;20063;-53
2024/03/23 10:23:41;;;;;;;5.82;3.03;;;;;;;;;;5054988;28;20132;-53
2024/03/23 10:26:14;;;;;;;5.90;2.67;;;;;;;;;;5055410;28;20025;-56
2024/03/23 10:28:58;;;;;;;7.18;2.20;;;;;;;;;;5054756;28;20032;-55
2024/03/23 10:31:25;;;;;;;3.42;2.05;;;;;;;;;;5054676;28;20041;-54
2024/03/23 10:33:53;;;;;;;5.85;2.22;;;;;;;;;;5055269;28;20103;-52
2024/03/23 10:36:20;;;;;;;2.67;2.00;;;;;;;;;;5054322;28;20479;-55
2024/03/23 10:38:47;;;;;;;5.57;2.28;;;;;;;;;;5055019;28;20056;-54
2024/03/23 10:41:13;;;;;;;5.22;3.00;;;;;;;;;;5054312;28;20498;-55
2024/03/23 10:43:39;;;;;;;8.50;4.38;;;;;;;;;;5054273;28;20021;-56
2024/03/23 10:46:05;;;;;;;5.18;3.50;;;;;;;;;;5054745;28;20032;-55
2024/03/23 10:48:34;;;;;;;3.70;2.33;;;;;;;;;;5054786;28;20029;-53
2024/03/23 10:51:00;;;;;;;4.10;2.78;;;;;;;;;;5054945;28;20062;-54
2024/03/23 10:53:27;;;;;;;3.60;2.00;;;;;;;;;;5054244;28;20021;-52
2024/03/23 10:55:54;;;;;;;4.63;2.20;;;;;;;;;;5053833;28;20490;-56
2024/03/23 10:58:23;;;;;;;5.40;2.08;;;;;;;;;;5055080;28;20053;-53
2024/03/23 11:00:49;;;;;;;6.50;2.33;;;;;;;;;;5054579;28;20044;-56
2024/03/23 11:03:31;;;;;;;3.20;1.90;;;;;;;;;;5053897;28;20100;-52
2024/03/23 11:05:57;;;;;;;2.17;1.60;;;;;;;;;;5054463;28;20028;-56
2024/03/23 11:08:32;;;;;;;2.17;1.27;;;;;;;;;;5054850;28;20108;-56
2024/03/23 11:11:13;;;;;;;3.33;1.48;;;;;;;;;;5054059;28;20035;-55
2024/03/23 11:13:39;;;;;;;2.65;1.58;;;;;;;;;;5053926;28;20024;-55
2024/03/23 11:16:15;;;;;;;2.90;1.27;;;;;;;;;;5054277;28;20021;-55
2024/03/23 11:18:41;;;;;;;2.92;1.45;;;;;;;;;;5054188;28;20092;-54
2024/03/23 11:21:08;;;;;;;2.80;1.25;;;;;;;;;;5054340;28;20047;-57
2024/03/23 11:23:34;;;;;;;4.28;1.55;;;;;;;;;;5053838;28;20505;-55
2024/03/23 11:26:00;;;;;;;3.08;1.85;;;;;;;;;;5053926;28;20028;-54
2024/03/23 11:28:26;;;;;;;3.05;1.58;;;;;;;;;;5054410;28;20451;-56
2024/03/23 11:30:52;;;;;;;2.50;1.17;;;;;;;;;;5053657;28;20033;-54
2024/03/23 11:33:18;;;;;;;2.72;1.60;;;;;;;;;;5053816;28;20428;-51
2024/03/23 11:35:44;;;;;;;3.47;1.58;;;;;;;;;;5053542;28;20481;-56
2024/03/23 11:38:19;;;;;;;2.80;1.58;;;;;;;;;;5053392;28;20024;-53
2024/03/23 11:40:46;;;;;;;2.13;1.40;;;;;;;;;;5053460;28;20368;-55
2024/03/23 11:43:18;;;;;;;6.90;2.58;;;;;;;;;;5054112;28;20060;-53
2024/03/23 11:45:51;;;;;;;2.13;1.08;;;;;;;;;;5053601;28;20104;-52
2024/03/23 11:48:18;;;;;;;3.38;1.52;;;;;;;;;;5054156;28;20029;-53
2024/03/23 11:50:45;;;;;;;3.40;1.70;;;;;;;;;;5054316;28;20029;-53
2024/03/23 11:53:15;;;;;;;5.82;1.45;;;;;;;;;;5053232;28;20095;-51
2024/03/23 11:55:48;;;;;;;3.67;1.38;;;;;;;;;;5053291;28;20106;-57
2024/03/23 11:58:15;;;;;;;2.53;1.30;;;;;;;;;;5051659;28;20510;-50
2024/03/23 12:00:44;;;;;;;2.92;1.50;;;;;;;;;;5053511;28;20079;-53
2024/03/23 12:03:10;;;;;;;3.72;1.83;;;;;;;;;;5053400;28;20040;-54
2024/03/23 12:05:36;;;;;;;8.25;1.48;;;;;;;;;;5053405;28;20129;-57
2024/03/23 12:08:21;;;;;;;2.95;1.25;;;;;;;;;;5053851;28;20029;-53
2024/03/23 12:11:11;;;;;;;2.10;1.10;;;;;;;;;;5053821;28;20087;-52
2024/03/23 12:13:37;;;;;;;8.55;1.25;;;;;;;;;;5050512;28;20080;-53
2024/03/23 12:16:22;;;;;;;1.85;0.88;;;;;;;;;;5053249;28;20120;-52
2024/03/23 12:18:49;;;;;;;2.30;1.13;;;;;;;;;;5053973;28;20060;-54
2024/03/23 12:21:16;;;;;;;4.68;1.73;;;;;;;;;;5053943;28;20029;-52
2024/03/23 12:23:44;;;;;;;1.42;0.77;;;;;;;;;;5053151;28;20025;-54
2024/03/23 12:26:10;;;;;;;9.50;1.77;;;;;;;;;;5053858;28;20369;-55
2024/03/23 12:28:37;;;;;;;3.78;1.00;;;;;;;;;;5053129;28;20025;-54
2024/03/23 12:31:06;;;;;;;2.10;0.90;;;;;;;;;;5053169;28;20044;-57
2024/03/23 12:33:32;;;;;;;2.55;0.70;;;;;;;;;;5053033;28;20021;-53
2024/03/23 12:35:58;;;;;;;3.35;1.40;;;;;;;;;;5053171;28;20482;-50
2024/03/23 12:38:24;;;;;;;2.33;1.10;;;;;;;;;;5053659;28;20017;-51
2024/03/23 12:40:51;;;;;;;2.85;0.80;;;;;;;;;;5053267;28;20044;-51
2024/03/23 12:43:17;;;;;;;3.30;0.82;;;;;;;;;;5055104;28;20111;-50
2024/03/23 12:45:49;;;;;;;5.40;1.27;;;;;;;;;;5057237;28;20427;-51
2024/03/23 12:48:16;;;;;;;7.93;1.77;;;;;;;;;;5057113;28;20025;-52
2024/03/23 12:50:42;;;;;;;2.38;1.17;;;;;;;;;;5057227;28;20029;-54
2024/03/23 12:53:08;;;;;;;2.88;1.15;;;;;;;;;;5057197;28;20022;-52
2024/03/23 12:55:37;;;;;;;3.35;1.30;;;;;;;;;;5056480;28;20040;-52
2024/03/23 12:58:03;;;;;;;7.50;1.50;;;;;;;;;;5057614;28;20443;-54
2024/03/23 13:00:29;;;;;;;4.95;1.27;;;;;;;;;;5056466;28;20108;-54
2024/03/23 13:02:55;;;;;;;3.08;1.50;;;;;;;;;;5056525;28;20016;-56
2024/03/23 13:05:21;;;;;;;4.68;1.73;;;;;;;;;;5056436;28;20025;-54
2024/03/23 13:07:47;;;;;;;3.10;1.60;;;;;;;;;;5056718;28;20033;-54
2024/03/23 13:10:14;;;;;;;3.60;1.30;;;;;;;;;;5056932;28;20070;-55
2024/03/23 13:12:40;;;;;;;5.55;2.00;;;;;;;;;;5055874;28;20486;-56
2024/03/23 13:15:07;;;;;;;5.30;1.42;;;;;;;;;;5056252;28;20037;-54
2024/03/23 13:17:33;;;;;;;2.33;1.40;;;;;;;;;;5055966;28;20025;-56
2024/03/23 13:19:59;;;;;;;5.18;2.28;;;;;;;;;;5056957;28;20021;-55
2024/03/23 13:22:24;;;;;;;2.50;1.63;;;;;;;;;;5056049;28;20032;-55
2024/03/23 13:24:50;;;;;;;4.63;1.67;;;;;;;;;;5055785;28;20435;-56
2024/03/23 13:27:16;;;;;;;3.00;1.90;;;;;;;;;;5056308;28;20067;-52
2024/03/23 13:29:42;;;;;;;3.40;1.50;;;;;;;;;;5056814;28;20431;-50
2024/03/23 13:32:08;;;;;;;4.97;1.38;;;;;;;;;;5056472;28;20064;-54
2024/03/23 13:34:34;;;;;;;2.67;1.17;;;;;;;;;;5055734;28;20497;-51
2024/03/23 13:37:00;;;;;;;2.10;1.00;;;;;;;;;;5055652;28;20056;-55
2024/03/23 13:39:29;;;;;;;2.30;0.93;;;;;;;;;;5055824;28;20056;-54
2024/03/23 13:41:55;;;;;;;2.05;0.63;;;;;;;;;;5055514;28;20165;-51
2024/03/23 13:44:21;;;;;;;1.92;0.70;;;;;;;;;;5055584;28;20029;-57
2024/03/23 13:46:47;;;;;;;3.45;0.95;;;;;;;;;;5056309;28;20029;-54
2024/03/23 13:49:24;;;;;;;2.58;0.57;;;;;;;;;;5056024;28;20033;-56
2024/03/23 13:51:50;;;;;;;0.52;0.35;;;;;;;;;;5055584;28;20123;-57
2024/03/23 13:54:16;;;;;;;2.28;0.98;;;;;;;;;;5055439;28;20132;-56
2024/03/23 13:56:43;;;;;;;3.10;0.63;;;;;;;;;;5055565;28;20049;-57
2024/03/23 13:59:09;;;;;;;1.88;0.60;;;;;;;;;;5055512;28;20430;-58
2024/03/23 14:01:34;;;;;;;3.00;0.80;;;;;;;;;;5056161;28;20041;-57
2024/03/23 14:04:00;;;;;;;1.65;0.73;;;;;;;;;;5055213;28;20368;-53
2024/03/23 14:06:26;;;;;;;2.65;0.80;;;;;;;;;;5055002;28;20017;-56
2024/03/23 14:08:52;;;;;;;6.25;1.27;;;;;;;;;;5056338;28;20036;-54
2024/03/23 14:11:19;;;;;;;5.15;1.50;;;;;;;;;;5055175;28;20164;-52
2024/03/23 14:13:45;;;;;;;2.20;0.90;;;;;;;;;;5055393;28;20074;-57
2024/03/23 14:16:11;;;;;;;4.65;2.15;;;;;;;;;;5055075;28;20112;-55
2024/03/23 14:18:37;;;;;;;1.35;0.95;;;;;;;;;;5055826;28;20055;-55
2024/03/23 14:21:03;;;;;;;5.22;1.30;;;;;;;;;;5055421;28;20114;-56
2024/03/23 14:23:29;;;;;;;3.63;0.70;;;;;;;;;;5054978;28;20033;-56
2024/03/23 14:25:56;;;;;;;3.13;0.90;;;;;;;;;;5054751;28;20352;-55
2024/03/23 14:28:22;;;;;;;0.70;0.30;;;;;;;;;;5055128;28;20347;-54
2024/03/23 14:30:49;;;;;;;1.67;0.57;;;;;;;;;;5054884;28;20035;-54
2024/03/23 14:33:15;;;;;;;1.85;0.65;;;;;;;;;;5054981;28;20052;-56
2024/03/23 14:35:41;;;;;;;3.97;0.57;;;;;;;;;;5054558;28;20043;-56
2024/03/23 14:38:07;;;;;;;1.17;0.40;;;;;;;;;;5055201;28;20025;-56
2024/03/23 14:40:33;;;;;;;0.75;0.47;;;;;;;;;;5054460;28;20031;-55